EYKS weather

S. Darius and S. Gir─Śnas Airfield
Kaunas, Kaunas County, Lithuania

Public forecast

Using degrees Celsius for public forecast. Weather courtesy of forecast.io.

METAR (pilot weather report)

Closest report is Kaunas International Airport, 8.6 nm (16.0 km) NE. Retrieved 2019/04/21 12:20 UTC (6 minutes ago):

EYKA 211220Z 08011KT 040V100 9999 SCT027 BKN030 09/02 Q1021

TAF (pilot weather forecast)

Closest forecast is Kaunas International Airport, 8.6 nm (16.0 km) NE. Retrieved 2019/04/21 12:03 UTC (23 minutes ago):

TAF EYKA 211100Z 2112/2212 06010KT 9000 BKN025 TEMPO 2112/2118 -SHRA SCT010 BKN020CB BECMG 2118/2119 NSC TEMPO 2119/2124 5000 BR SCT005 BECMG 2209/2210 14012KT SCT040